sensor_id;sensor_type;location;lat;lon;timestamp;P1;durP1;ratioP1;P2;durP2;ratioP2
15443;SDS011;7822;48.146;11.576;2023-04-19T00:01:27;15.17;;;10.20;;
15443;SDS011;7822;48.146;11.576;2023-04-19T00:03:55;15.80;;;10.00;;
15443;SDS011;7822;48.146;11.576;2023-04-19T00:06:23;14.87;;;9.87;;
15443;SDS011;7822;48.146;11.576;2023-04-19T00:08:51;12.10;;;9.30;;
15443;SDS011;7822;48.146;11.576;2023-04-19T00:11:20;12.37;;;9.50;;
15443;SDS011;7822;48.146;11.576;2023-04-19T00:13:48;13.90;;;9.73;;
15443;SDS011;7822;48.146;11.576;2023-04-19T00:16:15;13.60;;;9.33;;
15443;SDS011;7822;48.146;11.576;2023-04-19T00:18:43;13.37;;;9.43;;
15443;SDS011;7822;48.146;11.576;2023-04-19T00:21:11;13.07;;;9.80;;
15443;SDS011;7822;48.146;11.576;2023-04-19T00:23:39;13.43;;;9.27;;
15443;SDS011;7822;48.146;11.576;2023-04-19T00:26:07;14.53;;;9.10;;
15443;SDS011;7822;48.146;11.576;2023-04-19T00:28:37;12.37;;;9.07;;
15443;SDS011;7822;48.146;11.576;2023-04-19T00:31:05;12.87;;;9.83;;
15443;SDS011;7822;48.146;11.576;2023-04-19T00:33:33;13.83;;;9.50;;
15443;SDS011;7822;48.146;11.576;2023-04-19T00:36:01;13.90;;;9.77;;
15443;SDS011;7822;48.146;11.576;2023-04-19T00:38:28;13.67;;;9.57;;
15443;SDS011;7822;48.146;11.576;2023-04-19T00:40:56;12.93;;;9.20;;
15443;SDS011;7822;48.146;11.576;2023-04-19T00:43:24;13.03;;;9.23;;
15443;SDS011;7822;48.146;11.576;2023-04-19T00:45:53;12.53;;;9.20;;
15443;SDS011;7822;48.146;11.576;2023-04-19T00:48:21;13.50;;;9.90;;
15443;SDS011;7822;48.146;11.576;2023-04-19T00:50:49;11.00;;;8.70;;
15443;SDS011;7822;48.146;11.576;2023-04-19T00:53:17;14.23;;;9.83;;
15443;SDS011;7822;48.146;11.576;2023-04-19T00:55:45;11.20;;;8.93;;
15443;SDS011;7822;48.146;11.576;2023-04-19T00:58:16;11.70;;;9.57;;
15443;SDS011;7822;48.146;11.576;2023-04-19T01:00:44;12.07;;;9.20;;
15443;SDS011;7822;48.146;11.576;2023-04-19T01:03:13;12.27;;;10.00;;
15443;SDS011;7822;48.146;11.576;2023-04-19T01:05:42;15.33;;;9.83;;
15443;SDS011;7822;48.146;11.576;2023-04-19T01:08:09;12.37;;;9.63;;
15443;SDS011;7822;48.146;11.576;2023-04-19T01:10:37;14.17;;;9.10;;
15443;SDS011;7822;48.146;11.576;2023-04-19T01:13:05;11.43;;;8.90;;
15443;SDS011;7822;48.146;11.576;2023-04-19T01:15:32;12.00;;;9.33;;
15443;SDS011;7822;48.146;11.576;2023-04-19T01:18:00;11.10;;;8.40;;
15443;SDS011;7822;48.146;11.576;2023-04-19T01:20:29;11.53;;;8.97;;
15443;SDS011;7822;48.146;11.576;2023-04-19T01:22:58;12.90;;;9.40;;
15443;SDS011;7822;48.146;11.576;2023-04-19T01:25:26;12.50;;;9.27;;
15443;SDS011;7822;48.146;11.576;2023-04-19T01:27:53;13.10;;;9.30;;
15443;SDS011;7822;48.146;11.576;2023-04-19T01:30:21;10.67;;;8.43;;
15443;SDS011;7822;48.146;11.576;2023-04-19T01:32:49;11.50;;;8.90;;
15443;SDS011;7822;48.146;11.576;2023-04-19T01:35:16;12.17;;;8.47;;
15443;SDS011;7822;48.146;11.576;2023-04-19T01:37:44;12.63;;;8.63;;
15443;SDS011;7822;48.146;11.576;2023-04-19T01:40:14;14.17;;;9.00;;
15443;SDS011;7822;48.146;11.576;2023-04-19T01:42:42;10.37;;;8.33;;
15443;SDS011;7822;48.146;11.576;2023-04-19T01:45:09;10.57;;;8.37;;
15443;SDS011;7822;48.146;11.576;2023-04-19T01:47:37;11.87;;;8.70;;
15443;SDS011;7822;48.146;11.576;2023-04-19T01:50:05;12.70;;;8.97;;
15443;SDS011;7822;48.146;11.576;2023-04-19T01:52:34;11.13;;;8.70;;
15443;SDS011;7822;48.146;11.576;2023-04-19T01:55:01;11.90;;;8.87;;
15443;SDS011;7822;48.146;11.576;2023-04-19T01:57:31;11.50;;;9.00;;
15443;SDS011;7822;48.146;11.576;2023-04-19T01:59:58;10.37;;;7.97;;
15443;SDS011;7822;48.146;11.576;2023-04-19T02:02:27;10.57;;;8.50;;
15443;SDS011;7822;48.146;11.576;2023-04-19T02:04:56;10.37;;;8.53;;
15443;SDS011;7822;48.146;11.576;2023-04-19T02:07:23;10.83;;;8.07;;
15443;SDS011;7822;48.146;11.576;2023-04-19T02:09:51;11.23;;;8.37;;
15443;SDS011;7822;48.146;11.576;2023-04-19T02:12:19;11.07;;;8.00;;
15443;SDS011;7822;48.146;11.576;2023-04-19T02:14:48;11.63;;;8.50;;
15443;SDS011;7822;48.146;11.576;2023-04-19T02:17:15;10.70;;;8.47;;
15443;SDS011;7822;48.146;11.576;2023-04-19T02:19:43;11.23;;;8.27;;
15443;SDS011;7822;48.146;11.576;2023-04-19T02:22:11;10.17;;;8.43;;
15443;SDS011;7822;48.146;11.576;2023-04-19T02:24:38;10.17;;;7.47;;
15443;SDS011;7822;48.146;11.576;2023-04-19T02:27:06;9.90;;;7.77;;
15443;SDS011;7822;48.146;11.576;2023-04-19T02:29:33;10.53;;;8.40;;
15443;SDS011;7822;48.146;11.576;2023-04-19T02:32:03;10.50;;;8.10;;
15443;SDS011;7822;48.146;11.576;2023-04-19T02:34:32;10.67;;;8.17;;
15443;SDS011;7822;48.146;11.576;2023-04-19T02:37:00;9.33;;;7.33;;
15443;SDS011;7822;48.146;11.576;2023-04-19T02:39:28;10.10;;;7.70;;
15443;SDS011;7822;48.146;11.576;2023-04-19T02:41:56;9.20;;;7.40;;
15443;SDS011;7822;48.146;11.576;2023-04-19T02:44:24;10.73;;;7.90;;
15443;SDS011;7822;48.146;11.576;2023-04-19T02:46:53;10.27;;;7.60;;
15443;SDS011;7822;48.146;11.576;2023-04-19T02:49:22;9.50;;;7.57;;
15443;SDS011;7822;48.146;11.576;2023-04-19T02:51:50;10.50;;;7.90;;
15443;SDS011;7822;48.146;11.576;2023-04-19T02:54:18;9.30;;;7.80;;
15443;SDS011;7822;48.146;11.576;2023-04-19T02:56:45;10.73;;;8.00;;
15443;SDS011;7822;48.146;11.576;2023-04-19T02:59:13;9.97;;;7.33;;
15443;SDS011;7822;48.146;11.576;2023-04-19T03:01:40;8.93;;;6.97;;
15443;SDS011;7822;48.146;11.576;2023-04-19T03:04:08;10.20;;;8.43;;
15443;SDS011;7822;48.146;11.576;2023-04-19T03:06:37;9.10;;;7.63;;
15443;SDS011;7822;48.146;11.576;2023-04-19T03:09:05;8.27;;;7.10;;
15443;SDS011;7822;48.146;11.576;2023-04-19T03:11:32;9.63;;;7.50;;
15443;SDS011;7822;48.146;11.576;2023-04-19T03:14:00;9.57;;;7.53;;
15443;SDS011;7822;48.146;11.576;2023-04-19T03:16:28;9.33;;;7.30;;
15443;SDS011;7822;48.146;11.576;2023-04-19T03:18:56;9.03;;;7.37;;
15443;SDS011;7822;48.146;11.576;2023-04-19T03:21:24;8.60;;;7.50;;
15443;SDS011;7822;48.146;11.576;2023-04-19T03:23:55;9.87;;;7.43;;
15443;SDS011;7822;48.146;11.576;2023-04-19T03:26:23;9.57;;;7.03;;
15443;SDS011;7822;48.146;11.576;2023-04-19T03:28:51;9.67;;;7.83;;
15443;SDS011;7822;48.146;11.576;2023-04-19T03:31:18;9.17;;;7.10;;
15443;SDS011;7822;48.146;11.576;2023-04-19T03:33:46;9.43;;;7.23;;
15443;SDS011;7822;48.146;11.576;2023-04-19T03:36:14;8.87;;;6.87;;
15443;SDS011;7822;48.146;11.576;2023-04-19T03:38:42;9.47;;;7.73;;
15443;SDS011;7822;48.146;11.576;2023-04-19T03:41:18;10.57;;;7.77;;
15443;SDS011;7822;48.146;11.576;2023-04-19T03:43:46;10.93;;;7.20;;
15443;SDS011;7822;48.146;11.576;2023-04-19T03:46:14;8.57;;;6.97;;
15443;SDS011;7822;48.146;11.576;2023-04-19T03:48:41;8.27;;;7.30;;
15443;SDS011;7822;48.146;11.576;2023-04-19T03:51:09;9.97;;;7.27;;
15443;SDS011;7822;48.146;11.576;2023-04-19T03:53:38;8.77;;;7.50;;
15443;SDS011;7822;48.146;11.576;2023-04-19T03:56:06;8.37;;;6.67;;
15443;SDS011;7822;48.146;11.576;2023-04-19T03:58:35;8.97;;;7.07;;
15443;SDS011;7822;48.146;11.576;2023-04-19T04:01:02;9.13;;;7.37;;
15443;SDS011;7822;48.146;11.576;2023-04-19T04:03:31;8.53;;;7.03;;
15443;SDS011;7822;48.146;11.576;2023-04-19T04:05:59;9.20;;;6.87;;
15443;SDS011;7822;48.146;11.576;2023-04-19T04:08:27;9.83;;;7.40;;
15443;SDS011;7822;48.146;11.576;2023-04-19T04:10:55;8.33;;;6.80;;
15443;SDS011;7822;48.146;11.576;2023-04-19T04:13:22;10.03;;;7.00;;
15443;SDS011;7822;48.146;11.576;2023-04-19T04:15:51;8.90;;;7.33;;
15443;SDS011;7822;48.146;11.576;2023-04-19T04:18:19;7.97;;;6.70;;
15443;SDS011;7822;48.146;11.576;2023-04-19T04:20:47;8.00;;;7.20;;
15443;SDS011;7822;48.146;11.576;2023-04-19T04:23:14;8.70;;;7.10;;
15443;SDS011;7822;48.146;11.576;2023-04-19T04:25:42;9.03;;;7.00;;
15443;SDS011;7822;48.146;11.576;2023-04-19T04:28:11;8.97;;;7.80;;
15443;SDS011;7822;48.146;11.576;2023-04-19T04:30:39;8.90;;;7.37;;
15443;SDS011;7822;48.146;11.576;2023-04-19T04:33:09;8.00;;;6.63;;
15443;SDS011;7822;48.146;11.576;2023-04-19T04:35:37;9.57;;;7.20;;
15443;SDS011;7822;48.146;11.576;2023-04-19T04:38:05;8.60;;;7.17;;
15443;SDS011;7822;48.146;11.576;2023-04-19T04:40:49;9.27;;;6.97;;
15443;SDS011;7822;48.146;11.576;2023-04-19T04:43:18;8.50;;;7.03;;
15443;SDS011;7822;48.146;11.576;2023-04-19T04:45:47;8.37;;;6.47;;
15443;SDS011;7822;48.146;11.576;2023-04-19T04:48:17;7.90;;;7.07;;
15443;SDS011;7822;48.146;11.576;2023-04-19T04:50:45;8.87;;;7.10;;
15443;SDS011;7822;48.146;11.576;2023-04-19T04:53:12;7.57;;;6.57;;
15443;SDS011;7822;48.146;11.576;2023-04-19T04:55:40;7.37;;;6.27;;
15443;SDS011;7822;48.146;11.576;2023-04-19T04:58:07;7.47;;;6.37;;
15443;SDS011;7822;48.146;11.576;2023-04-19T05:00:35;7.60;;;6.57;;
15443;SDS011;7822;48.146;11.576;2023-04-19T05:03:03;8.03;;;7.23;;
15443;SDS011;7822;48.146;11.576;2023-04-19T05:05:32;7.73;;;6.63;;
15443;SDS011;7822;48.146;11.576;2023-04-19T05:08:00;7.20;;;6.17;;
15443;SDS011;7822;48.146;11.576;2023-04-19T05:10:27;7.50;;;6.40;;
15443;SDS011;7822;48.146;11.576;2023-04-19T05:12:55;7.43;;;6.60;;
15443;SDS011;7822;48.146;11.576;2023-04-19T05:15:23;7.63;;;6.80;;
15443;SDS011;7822;48.146;11.576;2023-04-19T05:17:50;8.93;;;7.00;;
15443;SDS011;7822;48.146;11.576;2023-04-19T05:20:18;7.10;;;6.40;;
15443;SDS011;7822;48.146;11.576;2023-04-19T05:22:47;8.43;;;6.77;;
15443;SDS011;7822;48.146;11.576;2023-04-19T05:25:15;7.63;;;6.50;;
15443;SDS011;7822;48.146;11.576;2023-04-19T05:27:42;7.57;;;6.40;;
15443;SDS011;7822;48.146;11.576;2023-04-19T05:30:10;8.10;;;6.50;;
15443;SDS011;7822;48.146;11.576;2023-04-19T05:32:38;7.70;;;6.37;;
15443;SDS011;7822;48.146;11.576;2023-04-19T05:35:06;7.33;;;6.13;;
15443;SDS011;7822;48.146;11.576;2023-04-19T05:37:34;7.70;;;6.50;;
15443;SDS011;7822;48.146;11.576;2023-04-19T05:40:04;7.80;;;6.27;;
15443;SDS011;7822;48.146;11.576;2023-04-19T05:42:35;7.70;;;6.10;;
15443;SDS011;7822;48.146;11.576;2023-04-19T05:45:03;7.13;;;6.43;;
15443;SDS011;7822;48.146;11.576;2023-04-19T05:47:31;8.17;;;6.17;;
15443;SDS011;7822;48.146;11.576;2023-04-19T05:49:59;6.90;;;6.17;;
15443;SDS011;7822;48.146;11.576;2023-04-19T05:52:27;6.87;;;6.17;;
15443;SDS011;7822;48.146;11.576;2023-04-19T05:54:54;7.90;;;5.97;;
15443;SDS011;7822;48.146;11.576;2023-04-19T05:57:23;7.50;;;6.00;;
15443;SDS011;7822;48.146;11.576;2023-04-19T05:59:51;7.30;;;6.27;;
15443;SDS011;7822;48.146;11.576;2023-04-19T06:02:19;7.47;;;6.30;;
15443;SDS011;7822;48.146;11.576;2023-04-19T06:04:47;7.67;;;6.07;;
15443;SDS011;7822;48.146;11.576;2023-04-19T06:07:15;6.03;;;5.43;;
15443;SDS011;7822;48.146;11.576;2023-04-19T06:09:59;6.70;;;6.00;;
15443;SDS011;7822;48.146;11.576;2023-04-19T06:12:28;7.23;;;6.07;;
15443;SDS011;7822;48.146;11.576;2023-04-19T06:14:55;7.67;;;6.00;;
15443;SDS011;7822;48.146;11.576;2023-04-19T06:17:23;6.07;;;5.47;;
15443;SDS011;7822;48.146;11.576;2023-04-19T06:19:51;6.87;;;6.03;;
15443;SDS011;7822;48.146;11.576;2023-04-19T06:22:19;6.93;;;5.90;;
15443;SDS011;7822;48.146;11.576;2023-04-19T06:24:46;8.20;;;6.33;;
15443;SDS011;7822;48.146;11.576;2023-04-19T06:27:15;6.30;;;5.60;;
15443;SDS011;7822;48.146;11.576;2023-04-19T06:29:44;7.97;;;6.00;;
15443;SDS011;7822;48.146;11.576;2023-04-19T06:32:11;7.83;;;6.20;;
15443;SDS011;7822;48.146;11.576;2023-04-19T06:34:39;7.80;;;6.53;;
15443;SDS011;7822;48.146;11.576;2023-04-19T06:37:07;8.53;;;6.60;;
15443;SDS011;7822;48.146;11.576;2023-04-19T06:39:34;8.27;;;6.60;;
15443;SDS011;7822;48.146;11.576;2023-04-19T06:42:02;8.47;;;6.10;;
15443;SDS011;7822;48.146;11.576;2023-04-19T06:44:30;8.20;;;6.27;;
15443;SDS011;7822;48.146;11.576;2023-04-19T06:46:59;7.27;;;6.20;;
15443;SDS011;7822;48.146;11.576;2023-04-19T06:49:27;8.60;;;6.73;;
15443;SDS011;7822;48.146;11.576;2023-04-19T06:51:54;7.83;;;6.40;;
15443;SDS011;7822;48.146;11.576;2023-04-19T06:54:22;8.10;;;6.53;;
15443;SDS011;7822;48.146;11.576;2023-04-19T06:56:50;7.27;;;6.43;;
15443;SDS011;7822;48.146;11.576;2023-04-19T06:59:18;9.80;;;7.00;;
15443;SDS011;7822;48.146;11.576;2023-04-19T07:01:47;8.47;;;6.40;;
15443;SDS011;7822;48.146;11.576;2023-04-19T07:04:16;8.47;;;6.50;;
15443;SDS011;7822;48.146;11.576;2023-04-19T07:06:46;8.87;;;6.27;;
15443;SDS011;7822;48.146;11.576;2023-04-19T07:09:14;6.93;;;6.00;;
15443;SDS011;7822;48.146;11.576;2023-04-19T07:11:42;9.63;;;6.50;;
15443;SDS011;7822;48.146;11.576;2023-04-19T07:14:10;6.97;;;6.27;;
15443;SDS011;7822;48.146;11.576;2023-04-19T07:16:38;7.03;;;6.20;;
15443;SDS011;7822;48.146;11.576;2023-04-19T07:19:05;7.47;;;6.67;;
15443;SDS011;7822;48.146;11.576;2023-04-19T07:21:34;8.20;;;6.57;;
15443;SDS011;7822;48.146;11.576;2023-04-19T07:24:04;7.57;;;6.07;;
15443;SDS011;7822;48.146;11.576;2023-04-19T07:26:32;8.40;;;6.47;;
15443;SDS011;7822;48.146;11.576;2023-04-19T07:29:00;7.33;;;5.63;;
15443;SDS011;7822;48.146;11.576;2023-04-19T07:31:27;7.03;;;5.90;;
15443;SDS011;7822;48.146;11.576;2023-04-19T07:33:55;7.50;;;6.60;;
15443;SDS011;7822;48.146;11.576;2023-04-19T07:36:23;6.50;;;5.73;;
15443;SDS011;7822;48.146;11.576;2023-04-19T07:38:52;8.83;;;6.60;;
15443;SDS011;7822;48.146;11.576;2023-04-19T07:41:19;8.27;;;6.33;;
15443;SDS011;7822;48.146;11.576;2023-04-19T07:43:47;8.53;;;6.80;;
15443;SDS011;7822;48.146;11.576;2023-04-19T07:46:15;7.53;;;5.40;;
15443;SDS011;7822;48.146;11.576;2023-04-19T07:48:43;9.33;;;6.57;;
15443;SDS011;7822;48.146;11.576;2023-04-19T07:51:12;8.30;;;6.80;;
15443;SDS011;7822;48.146;11.576;2023-04-19T07:53:41;6.97;;;5.93;;
15443;SDS011;7822;48.146;11.576;2023-04-19T07:56:11;8.20;;;6.83;;
15443;SDS011;7822;48.146;11.576;2023-04-19T07:58:39;7.90;;;6.23;;
15443;SDS011;7822;48.146;11.576;2023-04-19T08:01:09;7.90;;;6.57;;
15443;SDS011;7822;48.146;11.576;2023-04-19T08:03:36;8.80;;;6.77;;
15443;SDS011;7822;48.146;11.576;2023-04-19T08:06:05;8.17;;;6.10;;
15443;SDS011;7822;48.146;11.576;2023-04-19T08:08:34;7.80;;;6.50;;
15443;SDS011;7822;48.146;11.576;2023-04-19T08:11:02;6.80;;;6.10;;
15443;SDS011;7822;48.146;11.576;2023-04-19T08:13:32;8.53;;;6.60;;
15443;SDS011;7822;48.146;11.576;2023-04-19T08:16:00;7.13;;;6.17;;
15443;SDS011;7822;48.146;11.576;2023-04-19T08:18:48;6.73;;;6.00;;
15443;SDS011;7822;48.146;11.576;2023-04-19T08:21:17;6.80;;;5.87;;
15443;SDS011;7822;48.146;11.576;2023-04-19T08:23:51;8.13;;;6.63;;
15443;SDS011;7822;48.146;11.576;2023-04-19T08:26:19;6.83;;;6.13;;
15443;SDS011;7822;48.146;11.576;2023-04-19T08:28:49;7.60;;;6.80;;
15443;SDS011;7822;48.146;11.576;2023-04-19T08:31:17;7.57;;;6.43;;
15443;SDS011;7822;48.146;11.576;2023-04-19T08:33:46;7.60;;;6.67;;
15443;SDS011;7822;48.146;11.576;2023-04-19T08:36:13;8.47;;;6.67;;
15443;SDS011;7822;48.146;11.576;2023-04-19T08:38:47;7.87;;;6.53;;
15443;SDS011;7822;48.146;11.576;2023-04-19T08:41:30;8.57;;;6.70;;
15443;SDS011;7822;48.146;11.576;2023-04-19T08:43:59;7.87;;;6.20;;
15443;SDS011;7822;48.146;11.576;2023-04-19T08:46:29;6.57;;;5.67;;
15443;SDS011;7822;48.146;11.576;2023-04-19T08:48:57;7.87;;;5.93;;
15443;SDS011;7822;48.146;11.576;2023-04-19T08:51:26;6.97;;;6.17;;
15443;SDS011;7822;48.146;11.576;2023-04-19T08:53:56;7.87;;;6.27;;
15443;SDS011;7822;48.146;11.576;2023-04-19T08:56:25;8.73;;;6.23;;
15443;SDS011;7822;48.146;11.576;2023-04-19T08:59:02;7.80;;;6.47;;
15443;SDS011;7822;48.146;11.576;2023-04-19T09:01:36;7.27;;;5.60;;
15443;SDS011;7822;48.146;11.576;2023-04-19T09:04:05;8.87;;;6.40;;
15443;SDS011;7822;48.146;11.576;2023-04-19T09:06:37;7.60;;;6.67;;
15443;SDS011;7822;48.146;11.576;2023-04-19T09:09:14;8.37;;;6.00;;
15443;SDS011;7822;48.146;11.576;2023-04-19T09:12:00;6.20;;;5.47;;
15443;SDS011;7822;48.146;11.576;2023-04-19T09:14:29;8.23;;;6.70;;
15443;SDS011;7822;48.146;11.576;2023-04-19T09:19:46;6.37;;;5.60;;
15443;SDS011;7822;48.146;11.576;2023-04-19T09:22:14;6.70;;;5.87;;
15443;SDS011;7822;48.146;11.576;2023-04-19T09:24:42;6.87;;;6.17;;
15443;SDS011;7822;48.146;11.576;2023-04-19T09:27:13;7.07;;;6.33;;
15443;SDS011;7822;48.146;11.576;2023-04-19T09:29:52;8.33;;;6.10;;
15443;SDS011;7822;48.146;11.576;2023-04-19T09:32:20;7.73;;;6.20;;
15443;SDS011;7822;48.146;11.576;2023-04-19T09:34:52;7.57;;;5.73;;
15443;SDS011;7822;48.146;11.576;2023-04-19T09:37:21;8.27;;;6.40;;
15443;SDS011;7822;48.146;11.576;2023-04-19T09:40:21;6.83;;;5.80;;
15443;SDS011;7822;48.146;11.576;2023-04-19T09:42:49;8.17;;;6.43;;
15443;SDS011;7822;48.146;11.576;2023-04-19T09:45:22;7.03;;;5.80;;
15443;SDS011;7822;48.146;11.576;2023-04-19T09:48:02;6.80;;;5.70;;
15443;SDS011;7822;48.146;11.576;2023-04-19T09:50:33;7.73;;;6.07;;
15443;SDS011;7822;48.146;11.576;2023-04-19T09:53:20;8.97;;;6.40;;
15443;SDS011;7822;48.146;11.576;2023-04-19T09:55:49;7.83;;;5.87;;
15443;SDS011;7822;48.146;11.576;2023-04-19T09:58:27;6.83;;;6.13;;
15443;SDS011;7822;48.146;11.576;2023-04-19T10:00:59;6.73;;;6.03;;
15443;SDS011;7822;48.146;11.576;2023-04-19T10:03:40;6.93;;;6.23;;
15443;SDS011;7822;48.146;11.576;2023-04-19T10:06:10;7.20;;;5.63;;
15443;SDS011;7822;48.146;11.576;2023-04-19T10:09:00;6.77;;;5.60;;
15443;SDS011;7822;48.146;11.576;2023-04-19T10:11:30;6.53;;;5.57;;
15443;SDS011;7822;48.146;11.576;2023-04-19T10:14:04;7.20;;;5.63;;
15443;SDS011;7822;48.146;11.576;2023-04-19T10:16:35;8.03;;;5.77;;
15443;SDS011;7822;48.146;11.576;2023-04-19T10:19:05;6.70;;;5.93;;
15443;SDS011;7822;48.146;11.576;2023-04-19T10:21:35;8.10;;;6.43;;
15443;SDS011;7822;48.146;11.576;2023-04-19T10:24:04;7.50;;;5.60;;
15443;SDS011;7822;48.146;11.576;2023-04-19T10:32:30;7.30;;;5.30;;
15443;SDS011;7822;48.146;11.576;2023-04-19T10:35:07;6.87;;;5.77;;
15443;SDS011;7822;48.146;11.576;2023-04-19T10:37:39;6.27;;;5.67;;
15443;SDS011;7822;48.146;11.576;2023-04-19T10:40:08;5.90;;;5.10;;
15443;SDS011;7822;48.146;11.576;2023-04-19T10:45:41;6.30;;;5.37;;
15443;SDS011;7822;48.146;11.576;2023-04-19T10:51:00;6.80;;;5.47;;
15443;SDS011;7822;48.146;11.576;2023-04-19T10:59:24;6.27;;;5.00;;
15443;SDS011;7822;48.146;11.576;2023-04-19T11:01:53;7.00;;;5.87;;
15443;SDS011;7822;48.146;11.576;2023-04-19T11:07:27;6.57;;;5.40;;
15443;SDS011;7822;48.146;11.576;2023-04-19T11:09:54;6.57;;;5.73;;
15443;SDS011;7822;48.146;11.576;2023-04-19T11:12:22;7.87;;;5.70;;
15443;SDS011;7822;48.146;11.576;2023-04-19T11:14:50;5.60;;;5.00;;
15443;SDS011;7822;48.146;11.576;2023-04-19T11:17:19;6.50;;;5.90;;
15443;SDS011;7822;48.146;11.576;2023-04-19T11:19:54;6.53;;;5.40;;
15443;SDS011;7822;48.146;11.576;2023-04-19T11:22:25;6.10;;;5.40;;
15443;SDS011;7822;48.146;11.576;2023-04-19T11:25:03;6.73;;;5.23;;
15443;SDS011;7822;48.146;11.576;2023-04-19T11:27:31;5.57;;;5.07;;
15443;SDS011;7822;48.146;11.576;2023-04-19T11:30:03;6.20;;;5.43;;
15443;SDS011;7822;48.146;11.576;2023-04-19T11:32:32;6.77;;;5.37;;
15443;SDS011;7822;48.146;11.576;2023-04-19T11:35:03;7.37;;;5.80;;
15443;SDS011;7822;48.146;11.576;2023-04-19T11:37:35;6.20;;;5.60;;
15443;SDS011;7822;48.146;11.576;2023-04-19T11:40:04;6.90;;;5.33;;
15443;SDS011;7822;48.146;11.576;2023-04-19T11:42:33;6.07;;;5.13;;
15443;SDS011;7822;48.146;11.576;2023-04-19T11:45:01;6.50;;;5.40;;
15443;SDS011;7822;48.146;11.576;2023-04-19T11:47:29;6.17;;;5.57;;
15443;SDS011;7822;48.146;11.576;2023-04-19T11:52:59;6.73;;;5.83;;
15443;SDS011;7822;48.146;11.576;2023-04-19T11:55:35;5.47;;;4.90;;
15443;SDS011;7822;48.146;11.576;2023-04-19T11:58:05;5.93;;;5.10;;
15443;SDS011;7822;48.146;11.576;2023-04-19T12:00:35;5.90;;;5.27;;
15443;SDS011;7822;48.146;11.576;2023-04-19T12:03:03;6.20;;;5.03;;
15443;SDS011;7822;48.146;11.576;2023-04-19T12:05:31;5.63;;;5.00;;
15443;SDS011;7822;48.146;11.576;2023-04-19T12:08:01;6.50;;;5.53;;
15443;SDS011;7822;48.146;11.576;2023-04-19T12:10:30;7.53;;;5.47;;
15443;SDS011;7822;48.146;11.576;2023-04-19T12:12:58;6.13;;;5.10;;
15443;SDS011;7822;48.146;11.576;2023-04-19T12:15:39;7.17;;;4.93;;
15443;SDS011;7822;48.146;11.576;2023-04-19T12:18:08;5.30;;;4.73;;
15443;SDS011;7822;48.146;11.576;2023-04-19T12:20:36;5.87;;;5.13;;
15443;SDS011;7822;48.146;11.576;2023-04-19T12:23:06;6.50;;;5.67;;
15443;SDS011;7822;48.146;11.576;2023-04-19T12:25:36;6.33;;;5.53;;
15443;SDS011;7822;48.146;11.576;2023-04-19T12:28:04;6.57;;;5.13;;
15443;SDS011;7822;48.146;11.576;2023-04-19T12:30:32;6.23;;;5.63;;
15443;SDS011;7822;48.146;11.576;2023-04-19T12:33:00;6.43;;;5.57;;
15443;SDS011;7822;48.146;11.576;2023-04-19T12:35:28;5.80;;;5.20;;
15443;SDS011;7822;48.146;11.576;2023-04-19T12:37:57;7.33;;;5.67;;
15443;SDS011;7822;48.146;11.576;2023-04-19T12:40:27;6.03;;;5.30;;
15443;SDS011;7822;48.146;11.576;2023-04-19T12:42:55;5.90;;;5.30;;
15443;SDS011;7822;48.146;11.576;2023-04-19T12:45:24;6.03;;;5.43;;
15443;SDS011;7822;48.146;11.576;2023-04-19T12:47:52;5.93;;;5.30;;
15443;SDS011;7822;48.146;11.576;2023-04-19T12:50:19;5.30;;;4.63;;
15443;SDS011;7822;48.146;11.576;2023-04-19T12:52:47;6.10;;;5.50;;
15443;SDS011;7822;48.146;11.576;2023-04-19T12:55:16;6.03;;;4.93;;
15443;SDS011;7822;48.146;11.576;2023-04-19T12:57:46;6.03;;;5.00;;
15443;SDS011;7822;48.146;11.576;2023-04-19T13:00:14;6.07;;;5.13;;
15443;SDS011;7822;48.146;11.576;2023-04-19T13:02:42;5.63;;;4.90;;
15443;SDS011;7822;48.146;11.576;2023-04-19T13:05:10;5.97;;;5.23;;
15443;SDS011;7822;48.146;11.576;2023-04-19T13:07:38;7.30;;;5.53;;
15443;SDS011;7822;48.146;11.576;2023-04-19T13:10:06;5.53;;;5.03;;
15443;SDS011;7822;48.146;11.576;2023-04-19T13:12:34;5.20;;;4.67;;
15443;SDS011;7822;48.146;11.576;2023-04-19T13:15:04;5.87;;;5.33;;
15443;SDS011;7822;48.146;11.576;2023-04-19T13:17:32;5.50;;;4.80;;
15443;SDS011;7822;48.146;11.576;2023-04-19T13:20:01;5.90;;;4.70;;
15443;SDS011;7822;48.146;11.576;2023-04-19T13:22:31;5.90;;;5.30;;
15443;SDS011;7822;48.146;11.576;2023-04-19T13:24:59;6.90;;;6.07;;
15443;SDS011;7822;48.146;11.576;2023-04-19T13:27:26;5.70;;;4.90;;
15443;SDS011;7822;48.146;11.576;2023-04-19T13:29:54;5.00;;;4.50;;
15443;SDS011;7822;48.146;11.576;2023-04-19T13:32:23;5.40;;;4.83;;
15443;SDS011;7822;48.146;11.576;2023-04-19T13:34:51;5.40;;;4.90;;
15443;SDS011;7822;48.146;11.576;2023-04-19T13:37:19;6.40;;;5.80;;
15443;SDS011;7822;48.146;11.576;2023-04-19T13:39:46;5.87;;;4.93;;
15443;SDS011;7822;48.146;11.576;2023-04-19T13:42:14;4.63;;;4.23;;
15443;SDS011;7822;48.146;11.576;2023-04-19T13:44:42;6.17;;;5.30;;
15443;SDS011;7822;48.146;11.576;2023-04-19T13:47:09;5.20;;;4.73;;
15443;SDS011;7822;48.146;11.576;2023-04-19T13:49:38;5.70;;;4.97;;
15443;SDS011;7822;48.146;11.576;2023-04-19T13:52:06;5.93;;;5.33;;
15443;SDS011;7822;48.146;11.576;2023-04-19T13:54:36;5.27;;;4.60;;
15443;SDS011;7822;48.146;11.576;2023-04-19T13:57:03;5.30;;;4.67;;
15443;SDS011;7822;48.146;11.576;2023-04-19T13:59:31;5.30;;;4.80;;
15443;SDS011;7822;48.146;11.576;2023-04-19T14:01:58;6.07;;;5.20;;
15443;SDS011;7822;48.146;11.576;2023-04-19T14:04:26;5.30;;;4.80;;
15443;SDS011;7822;48.146;11.576;2023-04-19T14:06:55;5.73;;;5.10;;
15443;SDS011;7822;48.146;11.576;2023-04-19T14:09:23;5.67;;;4.70;;
15443;SDS011;7822;48.146;11.576;2023-04-19T14:11:51;5.40;;;4.90;;
15443;SDS011;7822;48.146;11.576;2023-04-19T14:14:20;5.23;;;4.73;;
15443;SDS011;7822;48.146;11.576;2023-04-19T14:16:47;5.50;;;4.93;;
15443;SDS011;7822;48.146;11.576;2023-04-19T14:19:15;5.40;;;4.90;;
15443;SDS011;7822;48.146;11.576;2023-04-19T14:21:43;5.20;;;4.70;;
15443;SDS011;7822;48.146;11.576;2023-04-19T14:24:12;5.27;;;4.57;;
15443;SDS011;7822;48.146;11.576;2023-04-19T14:26:40;5.33;;;4.83;;
15443;SDS011;7822;48.146;11.576;2023-04-19T14:29:07;5.90;;;5.10;;
15443;SDS011;7822;48.146;11.576;2023-04-19T14:31:35;4.93;;;4.40;;
15443;SDS011;7822;48.146;11.576;2023-04-19T14:34:03;5.20;;;4.70;;
15443;SDS011;7822;48.146;11.576;2023-04-19T14:36:31;4.77;;;4.30;;
15443;SDS011;7822;48.146;11.576;2023-04-19T14:38:58;4.23;;;3.83;;
15443;SDS011;7822;48.146;11.576;2023-04-19T14:41:27;5.70;;;4.87;;
15443;SDS011;7822;48.146;11.576;2023-04-19T14:43:55;4.53;;;4.13;;
15443;SDS011;7822;48.146;11.576;2023-04-19T14:46:23;6.00;;;4.53;;
15443;SDS011;7822;48.146;11.576;2023-04-19T14:48:51;4.90;;;4.40;;
15443;SDS011;7822;48.146;11.576;2023-04-19T14:51:18;4.97;;;4.47;;
15443;SDS011;7822;48.146;11.576;2023-04-19T14:53:46;5.77;;;4.73;;
15443;SDS011;7822;48.146;11.576;2023-04-19T14:56:13;4.70;;;4.17;;
15443;SDS011;7822;48.146;11.576;2023-04-19T14:58:43;4.90;;;4.47;;
15443;SDS011;7822;48.146;11.576;2023-04-19T15:01:10;4.67;;;4.27;;
15443;SDS011;7822;48.146;11.576;2023-04-19T15:03:38;4.90;;;4.40;;
15443;SDS011;7822;48.146;11.576;2023-04-19T15:06:07;5.50;;;4.90;;
15443;SDS011;7822;48.146;11.576;2023-04-19T15:08:34;5.33;;;4.83;;
15443;SDS011;7822;48.146;11.576;2023-04-19T15:11:02;5.10;;;4.60;;
15443;SDS011;7822;48.146;11.576;2023-04-19T15:13:30;4.60;;;4.17;;
15443;SDS011;7822;48.146;11.576;2023-04-19T15:16:00;5.40;;;4.37;;
15443;SDS011;7822;48.146;11.576;2023-04-19T15:18:29;5.07;;;4.67;;
15443;SDS011;7822;48.146;11.576;2023-04-19T15:20:56;4.93;;;4.43;;
15443;SDS011;7822;48.146;11.576;2023-04-19T15:23:24;4.87;;;4.27;;